createdAt,value
2024-01-09T00:02:27.853Z,32.47
2024-01-09T00:07:32.318Z,30.52
2024-01-09T00:12:36.760Z,24.55
2024-01-09T00:17:43.844Z,32.75
2024-01-09T00:22:49.158Z,31.85
2024-01-09T00:27:53.593Z,31.15
2024-01-09T00:32:59.507Z,33.65
2024-01-09T00:38:05.396Z,27.80
2024-01-09T00:43:09.854Z,24.73
2024-01-09T00:48:15.897Z,30.85
2024-01-09T00:53:20.531Z,25.83
2024-01-09T00:58:25.040Z,28.02
2024-01-09T01:03:32.862Z,25.52
2024-01-09T01:08:39.153Z,28.25
2024-01-09T01:13:43.629Z,25.58
2024-01-09T01:18:49.610Z,28.27
2024-01-09T01:23:54.358Z,27.90
2024-01-09T01:28:58.766Z,25.77
2024-01-09T01:34:04.896Z,25.85
2024-01-09T01:39:10.670Z,24.77
2024-01-09T01:44:19.558Z,25.17
2024-01-09T01:49:25.896Z,27.58
2024-01-09T01:54:33.210Z,24.90
2024-01-09T02:04:46.569Z,25.17
2024-01-09T02:09:53.404Z,24.02
2024-01-09T02:14:58.008Z,29.35
2024-01-09T02:20:04.014Z,27.50
2024-01-09T02:25:09.590Z,28.42
2024-01-09T02:30:15.694Z,17.35
2024-01-09T02:35:20.808Z,26.67
2024-01-09T02:40:25.251Z,24.42
2024-01-09T02:45:31.232Z,23.45
2024-01-09T02:50:35.792Z,26.70
2024-01-09T02:55:40.364Z,28.85
2024-01-09T03:00:46.259Z,27.00
2024-01-09T03:05:51.066Z,23.08
2024-01-09T03:10:55.641Z,25.73
2024-01-09T03:16:01.475Z,21.17
2024-01-09T03:21:06.406Z,26.30
2024-01-09T03:26:10.881Z,24.48
2024-01-09T03:31:22.512Z,23.90
2024-01-09T03:36:26.964Z,29.13
2024-01-09T03:41:31.475Z,24.92
2024-01-09T03:46:37.703Z,29.08
2024-01-09T03:51:42.457Z,25.92
2024-01-09T03:56:47.102Z,25.73
2024-01-09T04:01:53.312Z,25.98
2024-01-09T04:06:57.692Z,26.45
2024-01-09T04:12:02.105Z,22.38
2024-01-09T04:17:08.188Z,22.25
2024-01-09T04:22:12.752Z,25.05
2024-01-09T04:27:17.182Z,21.95
2024-01-09T04:32:23.404Z,24.70
2024-01-09T04:37:27.856Z,22.35
2024-01-09T04:42:32.316Z,24.63
2024-01-09T04:47:38.314Z,24.58
2024-01-09T04:52:42.881Z,26.85
2024-01-09T04:57:47.282Z,145.75
2024-01-09T05:02:54.650Z,222.57
2024-01-09T05:07:59.349Z,23.00
2024-01-09T05:13:03.773Z,35.38
2024-01-09T05:18:10.428Z,420.85
2024-01-09T05:23:14.953Z,25.58
2024-01-09T05:28:19.614Z,27.83
2024-01-09T05:33:25.855Z,34.90
2024-01-09T05:38:30.602Z,42.60
2024-01-09T05:43:35.203Z,144.35
2024-01-09T05:48:42.246Z,156.95
2024-01-09T05:53:51.280Z,118.45
2024-01-09T05:58:56.206Z,44.80
2024-01-09T06:04:02.227Z,26.38
2024-01-09T06:09:07.446Z,31.73
2024-01-09T06:14:11.848Z,35.22
2024-01-09T06:19:17.906Z,40.88
2024-01-09T06:24:25.871Z,41.50
2024-01-09T06:29:32.297Z,35.70
2024-01-09T06:34:38.566Z,30.17
2024-01-09T06:39:43.260Z,24.90
2024-01-09T06:44:47.764Z,14.60
2024-01-09T06:49:55.172Z,24.98
2024-01-09T06:55:00.343Z,28.42
2024-01-09T07:00:06.028Z,24.80
2024-01-09T07:05:12.374Z,26.63
2024-01-09T07:10:17.220Z,29.30
2024-01-09T07:15:22.297Z,26.35
2024-01-09T07:20:28.289Z,29.95
2024-01-09T07:25:32.774Z,19.45
2024-01-09T07:30:37.186Z,26.77
2024-01-09T07:35:43.138Z,27.77
2024-01-09T07:40:47.909Z,27.17
2024-01-09T07:45:52.465Z,30.60
2024-01-09T07:50:59.039Z,28.95
2024-01-09T07:56:03.531Z,60.27
2024-01-09T08:01:08.134Z,131.10
2024-01-09T08:06:16.563Z,103.18
2024-01-09T08:11:21.224Z,69.93
2024-01-09T08:16:25.766Z,25.92
2024-01-09T08:21:31.572Z,26.48
2024-01-09T08:26:36.130Z,57.55
2024-01-09T08:31:46.325Z,24.48
2024-01-09T08:36:52.155Z,32.55
2024-01-09T08:41:56.882Z,29.08
2024-01-09T08:47:01.580Z,27.00
2024-01-09T08:52:08.042Z,29.13
2024-01-09T08:57:12.465Z,22.42
2024-01-09T09:02:17.135Z,17.17
2024-01-09T09:07:23.224Z,21.83
2024-01-09T09:12:27.640Z,20.10
2024-01-09T09:17:34.139Z,16.08
2024-01-09T09:22:42.515Z,23.88
2024-01-09T09:27:48.023Z,23.73
2024-01-09T09:32:52.539Z,16.90
2024-01-09T09:37:58.501Z,20.02
2024-01-09T09:43:05.430Z,17.95
2024-01-09T09:48:10.961Z,16.70
2024-01-09T09:53:19.588Z,132.05
2024-01-09T09:58:24.111Z,14.30
2024-01-09T10:03:34.151Z,15.38
2024-01-09T10:08:41.021Z,14.15
2024-01-09T10:13:46.104Z,83.43
2024-01-09T10:18:50.898Z,23.98
2024-01-09T10:23:59.376Z,14.63
2024-01-09T10:29:04.698Z,75.80
2024-01-09T10:34:09.830Z,28.55
2024-01-09T10:39:15.867Z,18.30
2024-01-09T10:44:22.352Z,18.05
2024-01-09T10:49:28.174Z,19.13
2024-01-09T10:54:36.540Z,17.00
2024-01-09T10:59:42.660Z,14.35
2024-01-09T11:04:47.714Z,44.35
2024-01-09T11:09:56.160Z,30.08
2024-01-09T11:15:06.399Z,20.73
2024-01-09T11:20:13.745Z,21.88
2024-01-09T11:25:25.396Z,39.72
2024-01-09T11:30:33.417Z,29.55
2024-01-09T11:35:40.197Z,308.80
2024-01-09T11:40:47.364Z,64.53
2024-01-09T11:45:51.742Z,41.90
2024-01-09T11:50:58.202Z,45.88
2024-01-09T11:56:04.714Z,19.92
2024-01-09T12:01:09.334Z,30.85
2024-01-09T12:06:14.007Z,53.42
2024-01-09T12:11:20.073Z,16.63
2024-01-09T12:16:26.047Z,46.45
2024-01-09T12:21:33.148Z,44.40
2024-01-09T12:26:41.463Z,15.65
2024-01-09T12:31:47.949Z,21.15
2024-01-09T12:36:52.683Z,20.15
2024-01-09T12:42:09.251Z,19.63
2024-01-09T12:47:17.155Z,17.45
2024-01-09T12:52:22.250Z,13.73
2024-01-09T12:57:28.238Z,16.95
2024-01-09T13:02:33.058Z,63.25
2024-01-09T13:07:37.602Z,79.05
2024-01-09T13:12:43.368Z,52.25
2024-01-09T13:17:47.863Z,95.75
2024-01-09T13:28:01.103Z,46.55
2024-01-09T13:33:05.992Z,17.73
2024-01-09T13:38:10.619Z,30.80
2024-01-09T13:43:16.674Z,32.45
2024-01-09T13:48:22.170Z,14.32
2024-01-09T13:53:29.984Z,16.95
2024-01-09T13:58:37.162Z,13.57
2024-01-09T14:03:41.933Z,16.67
2024-01-09T14:08:46.563Z,13.75
2024-01-09T14:13:53.604Z,18.67
2024-01-09T14:18:58.040Z,13.65
2024-01-09T14:24:03.170Z,18.38
2024-01-09T14:29:11.371Z,18.95
2024-01-09T14:34:18.403Z,12.90
2024-01-09T14:39:22.919Z,13.57
2024-01-09T14:44:28.816Z,15.70
2024-01-09T14:49:33.502Z,12.48
2024-01-09T14:54:38.996Z,44.85
2024-01-09T14:59:46.752Z,113.30
2024-01-09T15:04:53.434Z,42.80
2024-01-09T15:09:58.183Z,118.60
2024-01-09T15:15:04.057Z,35.00
2024-01-09T15:20:11.230Z,47.17
2024-01-09T15:25:15.919Z,50.55
2024-01-09T15:30:22.321Z,51.97
2024-01-09T15:35:26.793Z,30.20
2024-01-09T15:40:31.461Z,37.10
2024-01-09T15:45:37.381Z,42.67
2024-01-09T15:50:41.886Z,44.08
2024-01-09T15:55:47.074Z,13.35
2024-01-09T16:00:53.002Z,21.80
2024-01-09T16:05:57.456Z,26.42
2024-01-09T16:11:04.106Z,38.92
2024-01-09T16:16:18.888Z,19.40
2024-01-09T16:21:23.459Z,24.92
2024-01-09T16:26:27.950Z,39.38
2024-01-09T16:31:34.069Z,22.42
2024-01-09T16:36:38.782Z,18.67
2024-01-09T16:41:45.060Z,18.38
2024-01-09T16:46:51.100Z,15.00
2024-01-09T16:51:55.751Z,17.08
2024-01-09T16:57:00.242Z,16.55
2024-01-09T17:02:07.935Z,24.48
2024-01-09T17:07:12.602Z,28.95
2024-01-09T17:12:17.102Z,31.77
2024-01-09T17:17:23.029Z,17.73
2024-01-09T17:22:27.527Z,19.42
2024-01-09T17:27:32.385Z,18.70
2024-01-09T17:32:38.212Z,15.10
2024-01-09T17:37:43.636Z,20.40
2024-01-09T17:42:48.228Z,21.45
2024-01-09T17:47:55.173Z,32.88
2024-01-09T17:52:59.805Z,51.70
2024-01-09T17:58:05.402Z,49.88
2024-01-09T18:03:11.523Z,45.65
2024-01-09T18:08:16.123Z,41.05
2024-01-09T18:13:20.637Z,47.40
2024-01-09T18:18:30.422Z,60.65
2024-01-09T18:23:34.995Z,91.15
2024-01-09T18:28:43.691Z,50.70
2024-01-09T18:33:52.836Z,45.85
2024-01-09T18:38:57.927Z,51.10
2024-01-09T18:44:06.227Z,40.95
2024-01-09T18:49:12.203Z,47.65
2024-01-09T18:54:16.881Z,47.63
2024-01-09T18:59:22.556Z,47.35
2024-01-09T19:04:28.672Z,49.97
2024-01-09T19:09:33.145Z,48.42
2024-01-09T19:14:37.666Z,43.47
2024-01-09T19:19:47.486Z,47.83
2024-01-09T19:24:53.127Z,47.45
2024-01-09T19:30:03.700Z,55.13
2024-01-09T19:35:10.242Z,49.45
2024-01-09T19:40:15.495Z,66.57
2024-01-09T19:45:20.004Z,55.30
2024-01-09T19:50:26.051Z,44.85
2024-01-09T19:55:30.488Z,51.13
2024-01-09T20:00:35.068Z,44.13
2024-01-09T20:05:41.022Z,46.75
2024-01-09T20:10:45.687Z,41.05
2024-01-09T20:15:50.204Z,39.80
2024-01-09T20:20:56.317Z,37.60
2024-01-09T20:26:00.904Z,42.03
2024-01-09T20:31:10.971Z,55.35
2024-01-09T20:36:17.216Z,47.50
2024-01-09T20:41:22.621Z,49.45
2024-01-09T20:46:27.148Z,48.03
2024-01-09T20:51:33.669Z,40.38
2024-01-09T20:56:41.137Z,32.17
2024-01-09T21:01:45.773Z,43.20
2024-01-09T21:06:51.709Z,30.58
2024-01-09T21:11:56.360Z,31.58
2024-01-09T21:17:00.995Z,39.45
2024-01-09T21:22:07.341Z,41.70
2024-01-09T21:27:11.796Z,39.90
2024-01-09T21:32:16.424Z,32.72
2024-01-09T21:37:22.408Z,33.78
2024-01-09T21:42:27.088Z,43.08
2024-01-09T21:47:31.522Z,45.33
2024-01-09T21:52:38.820Z,38.13
2024-01-09T21:57:43.751Z,30.27
2024-01-09T22:02:48.419Z,34.60
2024-01-09T22:07:54.491Z,52.97
2024-01-09T22:12:58.898Z,61.13
2024-01-09T22:18:03.540Z,102.72
2024-01-09T22:23:09.686Z,45.60
2024-01-09T22:28:14.443Z,235.10
2024-01-09T22:33:19.934Z,264.77
2024-01-09T22:38:25.888Z,149.68
2024-01-09T22:43:30.625Z,53.00
2024-01-09T22:48:35.148Z,49.78
2024-01-09T22:53:42.064Z,42.13
2024-01-09T22:58:47.012Z,40.33
2024-01-09T23:03:53.097Z,36.30
2024-01-09T23:08:59.359Z,36.63
2024-01-09T23:14:04.299Z,40.67
2024-01-09T23:19:09.568Z,40.30
2024-01-09T23:24:16.098Z,38.75
2024-01-09T23:29:20.797Z,666.10
2024-01-09T23:34:25.681Z,510.02
2024-01-09T23:39:31.679Z,319.05
2024-01-09T23:44:36.268Z,250.88
2024-01-09T23:49:40.873Z,331.77
2024-01-09T23:54:48.237Z,444.05
2024-01-09T23:59:55.001Z,555.08
